Terminal Aerodrome Forecast
Issued by NWS

Home | Current Version | Previous Version | Text Only | Print | Product List | Glossary On
Versions: 1 2 3 4 5 6 7 8 9 10 11 12 13 14 15 16
309
FTUS43 KABR 232020 AAB
TAFMBG
TAF AMD
KMBG 232020Z 2320/2418 36018G25KT P6SM SCT060
     FM240200 32011KT P6SM FEW250
     FM240500 31007KT P6SM SKC
     FM241400 29011KT P6SM FEW250=

USA.gov is the U.S. government's official web portal to all federal, state and local government web resources and services.